Time;durP1;ratioP1;P1;durP2;ratioP2;P2;SDS_P1;SDS_P2;PMS_P1;PMS_P2;Temp;Humidity;BMP_temperature;BMP_pressure;BME280_temperature;BME280_humidity;BME280_pressure;Samples;Min_cycle;Max_cycle;Signal;HPM_P1;HPM_P2
2022/10/04 00:03:11;;;;;;;1.83;1.43;;;11.10;99.90;;;;;;21116041;28;20223;-67
2022/10/04 00:13:22;;;;;;;2.37;1.40;;;;;;;;;;21099389;28;20253;-66
2022/10/04 00:23:25;;;;;;;2.77;1.67;;;;;;;;;;21115016;28;20278;-67
2022/10/04 00:33:47;;;;;;;2.80;1.17;;;;;;;;;;21113311;28;20219;-67
2022/10/04 00:43:50;;;;;;;1.80;1.10;;;10.50;99.90;;;;;;21131327;28;20272;-66
2022/10/04 00:53:56;;;;;;;1.73;1.20;;;;;;;;;;21114164;27;20227;-66
2022/10/04 01:04:00;;;;;;;3.00;1.43;;;;;;;;;;21111709;28;20205;-66
2022/10/04 01:14:09;;;;;;;1.60;1.10;;;;;;;;;;21111817;28;20220;-67
2022/10/04 01:24:17;;;;;;;1.67;1.13;;;;;;;;;;21111600;28;20183;-67
2022/10/04 01:34:21;;;;;;;1.70;1.20;;;;;;;;;;21108802;28;20586;-67
2022/10/04 01:44:43;;;;;;;5.10;1.10;;;;;;;;;;21134593;28;20269;-67
2022/10/04 01:54:57;;;;;;;1.70;1.00;;;10.50;99.90;;;;;;21123618;28;20251;-67
2022/10/04 02:05:01;;;;;;;2.37;1.07;;;;;;;;;;21140679;28;20227;-67
2022/10/04 02:15:06;;;;;;;2.37;1.17;;;;;;;;;;21106818;28;20638;-67
2022/10/04 02:25:08;;;;;;;1.37;0.83;;;;;;;;;;21112753;28;20231;-67
2022/10/04 02:35:11;;;;;;;1.70;1.03;;;;;;;;;;21104908;28;20224;-66
2022/10/04 02:45:13;;;;;;;1.40;1.07;;;;;;;;;;21105162;28;20204;-67
2022/10/04 02:55:15;;;;;;;2.90;1.10;;;;;;;;;;21104059;28;20691;-67
2022/10/04 03:05:17;;;;;;;2.40;1.10;;;;;;;;;;21054131;22;20233;-70
2022/10/04 03:15:19;;;;;;;1.27;0.87;;;;;;;;;;20966905;28;20695;-70
2022/10/04 03:25:28;;;;;;;1.40;1.27;;;9.90;99.90;;;;;;20983234;28;20244;-69
2022/10/04 03:35:36;;;;;;;1.67;1.13;;;;;;;;;;20981433;28;20231;-69
2022/10/04 03:45:39;;;;;;;3.97;0.97;;;;;;;;;;20983717;28;20631;-70
2022/10/04 03:55:43;;;;;;;1.33;1.00;;;9.70;99.90;;;;;;20982857;28;20236;-70
2022/10/04 04:05:49;;;;;;;1.67;1.23;;;;;;;;;;20982283;28;20270;-70
2022/10/04 04:15:53;;;;;;;4.23;1.20;;;9.60;99.90;;;;;;20973128;28;20225;-70
2022/10/04 04:26:00;;;;;;;1.40;1.00;;;;;;;;;;20992010;28;20605;-70
2022/10/04 04:36:05;;;;;;;3.03;1.20;;;9.40;99.90;;;;;;20995500;28;20257;-70
2022/10/04 04:46:08;;;;;;;1.73;1.13;;;;;;;;;;20978457;28;20201;-69
2022/10/04 04:56:10;;;;;;;2.13;1.10;;;9.40;99.90;;;;;;20976333;28;20213;-69
2022/10/04 05:06:24;;;;;;;2.00;1.20;;;;;;;;;;20970803;28;20251;-69
2022/10/04 05:16:26;;;;;;;3.87;1.67;;;;;;;;;;20985456;28;20251;-69
2022/10/04 05:26:29;;;;;;;2.37;1.57;;;9.60;99.90;;;;;;20982192;28;20247;-69
2022/10/04 05:36:31;;;;;;;2.37;1.37;;;;;;;;;;21005362;28;20221;-69
2022/10/04 05:46:34;;;;;;;1.67;1.17;;;;;;;;;;21005800;28;20688;-69
2022/10/04 05:56:51;;;;;;;4.23;1.50;;;9.50;99.90;;;;;;21007349;28;20221;-69
2022/10/04 06:07:01;;;;;;;2.00;1.10;;;;;;;;;;20963950;22;20768;-81
2022/10/04 06:17:28;;;;;;;1.80;0.80;;;9.50;99.90;;;;;;20894107;28;20602;-82
2022/10/04 06:27:40;;;;;;;2.00;0.90;;;9.50;99.90;;;;;;20879112;28;20210;-82
2022/10/04 06:37:42;;;;;;;1.50;1.20;;;;;;;;;;20906328;28;20275;-81
2022/10/04 06:47:59;;;;;;;2.13;1.33;;;;;;;;;;20901084;28;20669;-81
2022/10/04 06:58:07;;;;;;;3.13;1.73;;;;;;;;;;20884072;28;20221;-81
2022/10/04 07:08:29;;;;;;;3.30;1.30;;;9.80;99.90;;;;;;20913714;28;20257;-81
2022/10/04 07:18:34;;;;;;;3.57;1.57;;;;;;;;;;20896910;28;20213;-82
2022/10/04 07:39:09;;;;;;;3.70;2.17;;;;;;;;;;20922779;28;20221;-81
2022/10/04 07:49:15;;;;;;;3.97;2.20;;;;;;;;;;20945977;28;20642;-82
2022/10/04 07:59:28;;;;;;;3.30;2.10;;;;;;;;;;20916108;28;20226;-82
2022/10/04 08:09:39;;;;;;;5.77;2.07;;;;;;;;;;20901359;28;20251;-84
2022/10/04 08:19:48;;;;;;;5.57;2.40;;;;;;;;;;20885468;28;20298;-83
2022/10/04 08:30:08;;;;;;;3.00;2.20;;;11.30;99.90;;;;;;20954680;28;20577;-84
2022/10/04 08:40:28;;;;;;;4.13;2.07;;;11.30;99.90;;;;;;20900407;28;20229;-82
2022/10/04 08:50:30;;;;;;;5.10;1.70;;;;;;;;;;20983571;28;20204;-82
2022/10/04 09:00:38;;;;;;;2.87;1.53;;;;;;;;;;20998316;28;20225;-83
2022/10/04 09:10:41;;;;;;;5.80;1.80;;;;;;;;;;20934984;28;20226;-84
2022/10/04 09:20:57;;;;;;;3.13;1.60;;;;;;;;;;20928939;28;20290;-84
2022/10/04 09:31:03;;;;;;;3.20;1.90;;;;;;;;;;20918497;28;20213;-83
2022/10/04 09:41:25;;;;;;;2.33;1.57;;;;;;;;;;20899451;28;20304;-80
2022/10/04 09:51:39;;;;;;;3.27;1.70;;;;;;;;;;20875283;28;20681;-83
2022/10/04 10:01:41;;;;;;;3.50;2.00;;;;;;;;;;20922824;28;20255;-84
2022/10/04 10:22:32;;;;;;;5.53;2.07;;;;;;;;;;20909234;28;20275;-83
2022/10/04 10:32:34;;;;;;;2.00;1.33;;;;;;;;;;20867951;28;20210;-86
2022/10/04 10:42:48;;;;;;;4.20;1.83;;;;;;;;;;20877161;28;20229;-83
2022/10/04 10:53:14;;;;;;;2.40;1.50;;;13.40;99.90;;;;;;20945851;28;20221;-83
2022/10/04 11:03:20;;;;;;;2.57;1.37;;;;;;;;;;20947009;28;20287;-84
2022/10/04 11:13:28;;;;;;;4.17;1.63;;;;;;;;;;20881735;28;20237;-85
2022/10/04 11:23:52;;;;;;;3.23;1.57;;;;;;;;;;20880568;28;20319;-85
2022/10/04 11:34:16;;;;;;;2.47;1.33;;;;;;;;;;20885635;22;20799;-69
2022/10/04 11:44:43;;;;;;;2.10;1.10;;;14.80;99.90;;;;;;20886232;28;20378;-69
2022/10/04 11:55:19;;;;;;;3.30;1.10;;;15.00;99.90;;;;;;20905339;28;20217;-69
2022/10/04 12:05:37;;;;;;;1.00;0.80;;;;;;;;;;20914528;28;20225;-69
2022/10/04 12:15:57;;;;;;;2.07;1.10;;;;;;;;;;20948323;28;20217;-69
2022/10/04 12:26:07;;;;;;;2.50;1.20;;;;;;;;;;20889260;28;20315;-69
2022/10/04 12:36:12;;;;;;;2.73;1.10;;;16.00;99.90;;;;;;20871402;28;20222;-69
2022/10/04 12:46:17;;;;;;;1.70;1.03;;;;;;;;;;20906960;28;20213;-69
2022/10/04 12:56:59;;;;;;;2.23;1.27;;;16.10;99.90;;;;;;20926680;28;20724;-69
2022/10/04 13:07:07;;;;;;;1.77;1.10;;;;;;;;;;20912353;28;20213;-69
2022/10/04 13:17:09;;;;;;;3.57;1.00;;;;;;;;;;20914367;28;20469;-69
2022/10/04 13:27:18;;;;;;;2.37;1.10;;;15.80;99.90;;;;;;20898978;28;20251;-70
2022/10/04 13:37:43;;;;;;;4.53;1.20;;;;;;;;;;20882249;28;20943;-71
2022/10/04 13:48:04;;;;;;;1.40;1.10;;;;;;;;;;20900142;28;20263;-71
2022/10/04 13:58:26;;;;;;;1.93;1.00;;;16.40;99.90;;;;;;20942124;28;20602;-71
2022/10/04 14:08:40;;;;;;;4.90;1.53;;;;;;;;;;20904252;28;20213;-71
2022/10/04 14:19:13;;;;;;;2.17;1.30;;;16.30;99.90;;;;;;20885282;28;20623;-70
2022/10/04 14:29:36;;;;;;;3.37;1.30;;;16.40;99.90;;;;;;20898158;28;20222;-69
2022/10/04 14:39:52;;;;;;;1.70;1.00;;;;;;;;;;20926556;28;20233;-69
2022/10/04 14:50:20;;;;;;;2.50;1.30;;;16.00;99.90;;;;;;20963536;28;20200;-69
2022/10/04 15:00:54;;;;;;;1.47;1.10;;;15.70;99.90;;;;;;20930579;28;20626;-68
2022/10/04 15:10:56;;;;;;;2.07;1.30;;;;;;;;;;20999768;22;20228;-71
2022/10/04 15:20:58;;;;;;;1.80;1.20;;;;;;;;;;21055414;28;20246;-72
2022/10/04 15:31:08;;;;;;;3.30;0.93;;;;;;;;;;21020387;28;20205;-71
2022/10/04 15:41:29;;;;;;;3.07;0.97;;;;;;;;;;20959839;28;20236;-72
2022/10/04 15:51:52;;;;;;;3.03;1.03;;;15.40;99.90;;;;;;20993591;28;20717;-71
2022/10/04 16:02:38;;;;;;;1.70;1.13;;;15.40;99.90;;;;;;21023072;28;20266;-71
2022/10/04 16:13:16;;;;;;;2.10;1.40;;;15.30;99.90;;;;;;20964442;28;20224;-71
2022/10/04 16:23:27;;;;;;;2.90;1.30;;;;;;;;;;20985315;28;20216;-70
2022/10/04 16:33:32;;;;;;;2.87;1.93;;;;;;;;;;21052872;28;20269;-70
2022/10/04 16:43:36;;;;;;;1.77;1.23;;;;;;;;;;21058848;28;20697;-70
2022/10/04 16:54:00;;;;;;;3.80;1.30;;;;;;;;;;21062848;28;20212;-70
2022/10/04 17:04:14;;;;;;;1.60;1.03;;;;;;;;;;21027974;28;20197;-69
2022/10/04 17:14:56;;;;;;;2.40;1.17;;;15.30;99.90;;;;;;21013736;28;20216;-69
2022/10/04 17:24:59;;;;;;;1.60;1.20;;;;;;;;;;20897487;28;20648;-70
2022/10/04 17:35:18;;;;;;;1.57;1.03;;;;;;;;;;21045847;28;20224;-69
2022/10/04 17:45:35;;;;;;;3.37;2.13;;;;;;;;;;21052348;28;20212;-69
2022/10/04 17:55:48;;;;;;;2.77;1.80;;;;;;;;;;21070643;28;20270;-70
2022/10/04 18:05:58;;;;;;;2.40;1.40;;;;;;;;;;21067825;28;20270;-69
2022/10/04 18:16:08;;;;;;;1.93;1.33;;;;;;;;;;21068103;28;20633;-70
2022/10/04 18:26:18;;;;;;;2.30;1.40;;;14.20;99.90;;;;;;21066055;28;20467;-69
2022/10/04 18:36:29;;;;;;;5.97;1.97;;;;;;;;;;21066526;28;20261;-69
2022/10/04 18:46:38;;;;;;;5.03;2.00;;;;;;;;;;21064002;28;20208;-69
2022/10/04 18:56:46;;;;;;;4.77;2.00;;;;;;;;;;21045793;28;20765;-70
2022/10/04 19:06:49;;;;;;;3.50;2.77;;;13.70;99.90;;;;;;21050511;28;20227;-69
2022/10/04 19:16:57;;;;;;;3.63;2.50;;;13.80;99.90;;;;;;21065703;28;20216;-70
2022/10/04 19:27:02;;;;;;;3.53;2.07;;;;;;;;;;21062993;28;20273;-70
2022/10/04 19:37:10;;;;;;;2.73;1.90;;;;;;;;;;21044202;28;20286;-69
2022/10/04 19:47:15;;;;;;;3.13;2.00;;;;;;;;;;21072794;28;20212;-70
2022/10/04 19:57:34;;;;;;;3.10;2.30;;;13.60;99.90;;;;;;21079260;28;20269;-70
2022/10/04 20:07:37;;;;;;;4.43;2.40;;;;;;;;;;21005406;28;20211;-69
2022/10/04 20:17:38;;;;;;;4.13;2.73;;;;;;;;;;20705252;28;20252;-70
2022/10/04 20:27:41;;;;;;;3.83;2.60;;;;;;;;;;20732900;28;20219;-70
2022/10/04 20:37:54;;;;;;;2.90;1.77;;;;;;;;;;20731060;28;20292;-70
2022/10/04 20:47:57;;;;;;;2.40;1.70;;;13.20;99.90;;;;;;20729124;28;20215;-69
2022/10/04 20:58:19;;;;;;;2.40;1.67;;;13.20;99.90;;;;;;20785652;28;20278;-69
2022/10/04 21:08:23;;;;;;;2.13;1.47;;;;;;;;;;20815016;22;20291;-71
2022/10/04 21:18:24;;;;;;;2.83;1.80;;;;;;;;;;21056986;28;20216;-71
2022/10/04 21:28:30;;;;;;;2.73;1.67;;;;;;;;;;21057585;28;20230;-71
2022/10/04 21:38:33;;;;;;;2.90;1.90;;;;;;;;;;21073985;28;20612;-71
2022/10/04 21:48:34;;;;;;;2.87;1.60;;;;;;;;;;21053641;28;20274;-71
2022/10/04 21:58:36;;;;;;;2.50;1.63;;;;;;;;;;20975964;28;20217;-71
2022/10/04 22:08:38;;;;;;;5.23;2.40;;;;;;;;;;20986959;28;20221;-71
2022/10/04 22:18:39;;;;;;;2.87;1.83;;;;;;;;;;20986877;28;20217;-68
2022/10/04 22:28:43;;;;;;;2.77;1.87;;;;;;;;;;20986129;28;20197;-69
2022/10/04 22:38:49;;;;;;;2.70;1.77;;;12.60;99.90;;;;;;20986330;28;20267;-68
2022/10/04 22:48:51;;;;;;;3.67;1.70;;;;;;;;;;20965802;28;20573;-69
2022/10/04 22:58:53;;;;;;;2.33;1.50;;;;;;;;;;20984128;28;20241;-69
2022/10/04 23:08:55;;;;;;;2.80;1.90;;;;;;;;;;20982964;28;20607;-70
2022/10/04 23:19:13;;;;;;;2.57;1.77;;;12.40;99.90;;;;;;20965830;28;20220;-70
2022/10/04 23:29:15;;;;;;;5.63;1.80;;;;;;;;;;20982419;28;20229;-70
2022/10/04 23:39:23;;;;;;;2.63;1.73;;;;;;;;;;20965416;28;20213;-70
2022/10/04 23:49:25;;;;;;;2.80;1.60;;;;;;;;;;20981496;28;20227;-70
2022/10/04 23:59:27;;;;;;;2.13;1.50;;;12.30;99.90;;;;;;20963960;28;20650;-70
